SILO ALERT LOG


Silo ID Alert Type Alert Message Silo Type Points Depth (mm) Strength Temperature (°C) Humidity (%) Height (mm) Volume (㎥) Weight (t) Flag Time
DJHNR14 Temperature 온도센서 측정값이 0도 미만 호퍼 34 2934 4317 -2.5 73.2 7445 106.642 67.419 11 2024-01-10 22:39:30.000
DJSAD17 Humidity 습도센서 측정값이 80% 초과 444 3129 4823 3.6 80.4 4450 443.144 280.155 0 2024-01-10 22:39:30.000
DJSAD18 Humidity 습도센서 측정값이 80% 초과 119 1368 5828 4.2 80.8 6211 618.583 391.068 11 2024-01-10 22:39:30.000
DJHNR13 Temperature 온도센서 측정값이 0도 미만 호퍼 67 1038 5670 -1.8 70.3 9341 147.544 93.278 11 2024-01-10 22:39:29.000
DJSSD12 Temperature 온도센서 상태 이상 호퍼 0 11350 0 -999 -999 -120 0 0 31 2024-01-10 22:39:25.000
DJHNR03 Temperature 온도센서 상태 이상 호퍼 0 15500 0 -999 -999 -119 0 0 31 2024-01-10 22:39:24.000
DJHNR12 Temperature 온도센서 측정값이 0도 미만 호퍼 0 10500 0 -3.3 82.3 -120 0 0 31 2024-01-10 22:39:23.000
DJHNR12 Humidity 습도센서 측정값이 80% 초과 호퍼 0 10500 0 -3.3 82.3 -120 0 0 31 2024-01-10 22:39:23.000
DJSAD03 Humidity 습도센서 측정값이 80% 초과 449 1674 6143 2.1 84.5 7105 294.158 185.967 0 2024-01-10 21:39:40.000
DJSAD02 Humidity 습도센서 측정값이 80% 초과 380 1138 4271 1.9 87.7 7641 316.322 199.978 11 2024-01-10 21:39:39.000
DJSAD01 Humidity 습도센서 측정값이 80% 초과 449 1525 7419 1.1 88.3 7254 300.297 189.848 0 2024-01-10 21:39:39.000
DJSAD07 Humidity 습도센서 측정값이 80% 초과 215 1363 1771 4.6 80.2 6216 884.575 550 11 2024-01-10 21:39:38.000
DJSAD08 Humidity 습도센서 측정값이 80% 초과 0 7700 3839 11.4 82.3 -120 -17.075 0 12 2024-01-10 21:39:37.000
DJSAD11 Humidity 습도센서 측정값이 80% 초과 332 1653 3249 1.4 80.3 5926 843.28 533.122 11 2024-01-10 21:39:34.000
DJSSD04 Temperature 온도센서 상태 이상 0 8200 0 -999 -999 -120 -16.702 0 31 2024-01-10 21:39:33.000
DJSSD05 Temperature 온도센서 측정값이 0도 미만 836 2551 4891 -45.4 43.6 5528 769.427 486.432 0 2024-01-10 21:39:33.000
DJHNR01 Humidity 습도센서 측정값이 80% 초과 호퍼 471 4307 5004 3.6 99.9 11072 472.84 298.929 13 2024-01-10 21:39:33.000
DJSSD11 Temperature 온도센서 측정값이 0도 미만 호퍼 445 7403 148 -3.8 77.5 3826 28.608 15.592 11 2024-01-10 21:39:32.000
DJDJD04 Humidity 습도센서 측정값이 80% 초과 280 4204 4469 3.2 81.3 3475 421.029 266.174 11 2024-01-10 21:39:32.000
DJHNR11 Temperature 온도센서 측정값이 0도 미만 호퍼 226 3277 1072 -3.7 74.5 7102 99.246 62.743 11 2024-01-10 21:39:32.000

[첫 페이지] [10011] [10012] [10013] [10014] 10015 [10016] [10017] [10018] [10019] [마지막 페이지]